Shepherd, MT

11:50 PM MST on March 04, 2015 (GMT -0700)
Billings Heights | Change Station
CLOSE
Current Station
Personal Weather Station
Location: Billings, MT
Elevation: 3274 ft
Nearby Weather Stations

Elev 3274 ft 45.82 °N, 108.50 °W | Updated 8 seconds ago

Clear
Clear
24.2 °F
Feels Like 18 °F
N
5.0
Wind Variable Wind from South
Gusts 5.0 mph

Today
High -- | Low -- °F
--% Chance of Precip.
Yesterday
High -- | Low -- °F
Precip. -- in
6:47 AM 6:03 PM
Full, 100% visible
Pressure 30.22 in
Visibility 10.0 miles
Clouds Clear
Windchill 18 °F
Dew Point 8 °F
Humidity 49%
Rainfall in
Snow Depth Not available.
UV 0 out of 12
Pollen .30 out of 12
Air Quality Not available.
Flu Activity Not available.
METAR KBIL 050553Z 24019KT 10SM CLR M06/M14 A3006 RMK AO2 PK WND 24026/0536 SLP231 4/001 T10611144 11011 21061 58001

More Conditions Fewer Conditions

Pressure 30.22 in
Visibility 10.0 miles
Clouds Clear
Windchill 18 °F
Dew Point 8 °F
Humidity 49%
Rainfall in
Snow Depth Not available.
UV 0 out of 12
Pollen .30 out of 12
Air Quality Not available.
Flu Activity Not available.
METAR KBIL 050553Z 24019KT 10SM CLR M06/M14 A3006 RMK AO2 PK WND 24026/0536 SLP231 4/001 T10611144 11011 21061 58001

More Conditions Fewer Conditions

10-Day Weather Forecast

Almanac

Astronomy

Mar. 04, 2015 Rise Set
Actual Time
Civil Twilight
Nautical Twilight
Astronomical Twilight
Moon
Length of Visible Light
Length of Day
Tomorrow will be .
, % of the Moon is Illuminated

Today's Extremes

State Highs State Lows

Community

WunderPhotos

Upload Photos

1,802,689 photos uploaded!

WunderBlogs® & News

Nearby

Air Quality

  Air Quality AQ Index Pollutant
Not available.

Snow Depth

Station Depth Elevation

Earthquake Activity

City Distance Mag. Time & Date
Minimum magnitude displayed is 2.5.

Coastal Water Temperatures

Place Temperature

Nearby Weather Stations